createdAt,value
2023-10-12T00:00:00.644Z,99479.84
2023-10-12T00:02:10.622Z,99462.63
2023-10-12T00:04:14.164Z,99460.09
2023-10-12T00:06:19.759Z,99485.66
2023-10-12T00:08:32.202Z,99457.78
2023-10-12T00:10:46.092Z,99465.19
2023-10-12T00:12:52.432Z,99468.31
2023-10-12T00:14:57.027Z,99447.16
2023-10-12T00:17:01.087Z,99483.66
2023-10-12T00:19:04.069Z,99463.31
2023-10-12T00:21:16.238Z,99473.25
2023-10-12T00:23:19.668Z,99491.19
2023-10-12T00:25:22.730Z,99447.09
2023-10-12T00:27:28.017Z,99401.19
2023-10-12T00:29:33.361Z,99458.97
2023-10-12T00:31:39.768Z,99479.31
2023-10-12T00:33:42.855Z,99478.16
2023-10-12T00:35:59.226Z,99452.59
2023-10-12T00:38:12.038Z,99440.38
2023-10-12T00:40:26.746Z,99446.59
2023-10-12T00:42:35.965Z,99427.72
2023-10-12T00:44:42.375Z,99427.88
2023-10-12T00:47:00.395Z,99392.72
2023-10-12T00:49:15.902Z,99401.06
2023-10-12T00:51:19.348Z,99402.81
2023-10-12T00:53:32.950Z,99384.09
2023-10-12T00:55:39.168Z,99385.94
2023-10-12T00:57:41.754Z,99360.69
2023-10-12T00:59:45.771Z,99383.47
2023-10-12T01:01:50.848Z,99405.09
2023-10-12T01:03:54.859Z,99361.31
2023-10-12T01:06:12.736Z,99389.00
2023-10-12T01:08:21.192Z,99371.44
2023-10-12T01:10:31.118Z,99381.66
2023-10-12T01:12:35.894Z,99388.34
2023-10-12T01:14:41.826Z,99404.00
2023-10-12T01:16:46.858Z,99429.69
2023-10-12T01:18:56.855Z,99396.81
2023-10-12T01:20:59.958Z,99393.88
2023-10-12T01:23:02.840Z,99391.56
2023-10-12T01:25:13.218Z,99381.34
2023-10-12T01:27:15.977Z,99367.16
2023-10-12T01:29:22.484Z,99336.91
2023-10-12T01:31:31.876Z,99381.34
2023-10-12T01:33:34.626Z,99430.31
2023-10-12T01:35:41.866Z,99393.69
2023-10-12T01:37:57.350Z,99369.28
2023-10-12T01:40:05.238Z,99387.88
2023-10-12T01:42:08.523Z,99403.66
2023-10-12T01:44:13.225Z,99383.16
2023-10-12T01:46:18.145Z,99398.81
2023-10-12T01:48:24.565Z,99399.63
2023-10-12T01:50:27.172Z,99420.94
2023-10-12T01:52:29.698Z,99365.75
2023-10-12T01:54:33.880Z,99404.66
2023-10-12T01:56:36.668Z,99374.06
2023-10-12T01:58:44.629Z,99369.19
2023-10-12T02:00:54.194Z,99395.53
2023-10-12T02:03:24.501Z,99380.25
2023-10-12T02:05:31.301Z,99409.22
2023-10-12T02:07:35.108Z,99366.25
2023-10-12T02:09:38.706Z,99366.72
2023-10-12T02:11:45.524Z,99349.63
2023-10-12T02:13:56.113Z,99399.28
2023-10-12T02:16:02.149Z,99351.41
2023-10-12T02:18:13.174Z,99357.28
2023-10-12T02:20:16.208Z,99395.84
2023-10-12T02:22:30.987Z,99359.06
2023-10-12T02:24:37.225Z,99341.28
2023-10-12T02:26:50.978Z,99347.16
2023-10-12T02:28:57.377Z,99399.72
2023-10-12T02:31:00.578Z,99337.59
2023-10-12T02:33:08.337Z,99408.44
2023-10-12T02:35:14.360Z,99413.16
2023-10-12T02:37:17.948Z,99396.06
2023-10-12T02:39:22.790Z,99404.56
2023-10-12T02:41:26.725Z,99389.56
2023-10-12T02:43:30.816Z,99388.41
2023-10-12T02:45:35.582Z,99367.59
2023-10-12T02:47:47.756Z,99425.41
2023-10-12T02:50:02.550Z,99404.72
2023-10-12T02:52:16.446Z,99380.31
2023-10-12T02:54:19.208Z,99394.13
2023-10-12T02:56:23.517Z,99409.13
2023-10-12T02:58:28.756Z,99403.13
2023-10-12T03:00:46.615Z,99384.38
2023-10-12T03:02:53.836Z,99371.53
2023-10-12T03:04:58.335Z,99385.53
2023-10-12T03:07:12.610Z,99369.91
2023-10-12T03:09:16.222Z,99378.69
2023-10-12T03:11:27.308Z,99336.72
2023-10-12T03:13:39.874Z,99386.97
2023-10-12T03:15:45.834Z,99325.97
2023-10-12T03:17:55.785Z,99344.97
2023-10-12T03:20:16.956Z,99373.16
2023-10-12T03:22:32.921Z,99362.75
2023-10-12T03:24:56.208Z,99371.84
2023-10-12T03:27:04.993Z,99353.16
2023-10-12T03:29:20.432Z,99363.72
2023-10-12T03:31:27.783Z,99360.16
2023-10-12T03:33:36.689Z,99372.53
2023-10-12T03:35:53.652Z,99328.25
2023-10-12T03:38:02.587Z,99336.06
2023-10-12T03:40:25.961Z,99338.19
2023-10-12T03:42:29.064Z,99368.63
2023-10-12T03:44:35.136Z,99383.56
2023-10-12T03:46:38.956Z,99343.50
2023-10-12T03:49:07.448Z,99357.34
2023-10-12T03:51:27.057Z,99356.88
2023-10-12T03:53:36.950Z,99320.13
2023-10-12T03:55:44.294Z,99279.59
2023-10-12T03:58:13.393Z,99332.31
2023-10-12T04:00:16.817Z,99349.72
2023-10-12T04:02:19.345Z,99321.06
2023-10-12T04:04:30.062Z,99314.56
2023-10-12T04:06:52.849Z,99331.97
2023-10-12T04:09:01.024Z,99324.03
2023-10-12T04:11:23.724Z,99338.19
2023-10-12T04:13:29.405Z,99345.34
2023-10-12T04:15:53.433Z,99314.41
2023-10-12T04:18:01.447Z,99340.94
2023-10-12T04:20:07.465Z,99309.69
2023-10-12T04:22:27.096Z,99294.06
2023-10-12T04:24:32.068Z,99366.47
2023-10-12T04:26:36.751Z,99295.38
2023-10-12T04:28:39.349Z,99308.88
2023-10-12T04:30:51.080Z,99296.81
2023-10-12T04:33:13.354Z,99298.91
2023-10-12T04:35:34.705Z,99327.38
2023-10-12T04:37:40.267Z,99294.53
2023-10-12T04:39:51.035Z,99334.38
2023-10-12T04:42:07.093Z,99298.59
2023-10-12T04:44:25.779Z,99346.91
2023-10-12T04:46:29.717Z,99305.91
2023-10-12T04:48:33.591Z,99316.31
2023-10-12T04:50:46.049Z,99285.91
2023-10-12T04:53:09.303Z,99322.00
2023-10-12T04:55:19.021Z,99296.63
2023-10-12T04:57:28.024Z,99308.34
2023-10-12T04:59:52.420Z,99306.44
2023-10-12T05:02:10.460Z,99303.47
2023-10-12T05:04:21.220Z,99290.13
2023-10-12T05:06:25.965Z,99290.94
2023-10-12T05:08:30.079Z,99277.44
2023-10-12T05:10:39.267Z,99264.94
2023-10-12T05:12:41.940Z,99359.47
2023-10-12T05:14:45.411Z,99285.44
2023-10-12T05:16:49.031Z,99314.06
2023-10-12T05:18:52.122Z,99308.22
2023-10-12T05:20:55.151Z,99300.88
2023-10-12T05:23:00.280Z,99311.13
2023-10-12T05:25:03.325Z,99303.66
2023-10-12T05:27:25.137Z,99273.72
2023-10-12T05:29:28.609Z,99361.75
2023-10-12T05:31:31.765Z,99329.19
2023-10-12T05:33:36.241Z,99367.78
2023-10-12T05:35:51.430Z,99321.22
2023-10-12T05:37:58.500Z,99322.03
2023-10-12T05:40:02.455Z,99301.84
2023-10-12T05:42:08.472Z,99357.34
2023-10-12T05:44:14.907Z,99335.34
2023-10-12T05:46:18.480Z,99337.31
2023-10-12T05:48:21.718Z,99352.75
2023-10-12T05:50:28.068Z,99349.69
2023-10-12T05:52:30.849Z,99337.78
2023-10-12T05:54:34.402Z,99354.53
2023-10-12T05:56:37.892Z,99371.94
2023-10-12T05:58:42.722Z,99363.16
2023-10-12T06:00:54.133Z,99392.31
2023-10-12T06:02:57.460Z,99338.13
2023-10-12T06:05:00.441Z,99398.84
2023-10-12T06:07:05.616Z,99351.59
2023-10-12T06:09:13.680Z,99383.16
2023-10-12T06:11:19.763Z,99381.06
2023-10-12T06:13:32.504Z,99370.97
2023-10-12T06:15:42.129Z,99420.13
2023-10-12T06:17:51.013Z,99380.38
2023-10-12T06:19:56.789Z,99375.63
2023-10-12T06:22:15.330Z,99375.31
2023-10-12T06:24:22.869Z,99406.56
2023-10-12T06:26:31.424Z,99367.78
2023-10-12T06:28:34.201Z,99348.28
2023-10-12T06:30:37.201Z,99370.06
2023-10-12T06:32:41.350Z,99360.78
2023-10-12T06:34:45.522Z,99351.84
2023-10-12T06:36:48.767Z,99406.66
2023-10-12T06:38:51.602Z,99388.59
2023-10-12T06:41:24.777Z,99414.94
2023-10-12T06:43:29.718Z,99319.91
2023-10-12T06:45:40.042Z,99318.88
2023-10-12T06:47:43.831Z,99335.50
2023-10-12T06:49:46.920Z,99332.03
2023-10-12T06:52:02.436Z,99400.56
2023-10-12T06:54:20.200Z,99314.47
2023-10-12T06:56:26.470Z,99322.16
2023-10-12T06:58:39.984Z,99336.38
2023-10-12T07:01:03.919Z,99342.94
2023-10-12T07:03:10.641Z,99341.84
2023-10-12T07:05:13.730Z,99334.66
2023-10-12T07:07:16.811Z,99364.09
2023-10-12T07:09:28.809Z,99346.41
2023-10-12T07:11:32.240Z,99377.47
2023-10-12T07:13:41.019Z,99338.06
2023-10-12T07:15:44.476Z,99368.03
2023-10-12T07:17:51.730Z,99332.31
2023-10-12T07:19:58.126Z,99371.47
2023-10-12T07:22:02.954Z,99344.84
2023-10-12T07:24:09.337Z,99352.06
2023-10-12T07:26:14.637Z,99348.38
2023-10-12T07:28:20.908Z,99372.59
2023-10-12T07:30:32.451Z,99381.22
2023-10-12T07:32:40.796Z,99387.72
2023-10-12T07:34:43.909Z,99394.84
2023-10-12T07:36:49.155Z,99407.25
2023-10-12T07:39:11.659Z,99395.31
2023-10-12T07:41:14.928Z,99431.38
2023-10-12T07:43:20.141Z,99419.97
2023-10-12T07:45:26.558Z,99422.16
2023-10-12T07:47:42.404Z,99366.06
2023-10-12T07:49:53.214Z,99423.84
2023-10-12T07:52:24.030Z,99405.97
2023-10-12T07:54:46.950Z,99424.72
2023-10-12T07:56:50.222Z,99402.50
2023-10-12T07:59:02.377Z,99361.72
2023-10-12T08:01:23.671Z,99445.28
2023-10-12T08:03:27.294Z,99374.09
2023-10-12T08:05:39.486Z,99375.44
2023-10-12T08:08:00.823Z,99393.63
2023-10-12T08:10:11.903Z,99420.66
2023-10-12T08:12:27.238Z,99424.88
2023-10-12T08:14:30.505Z,99416.69
2023-10-12T08:16:42.603Z,99389.69
2023-10-12T08:18:58.705Z,99428.16
2023-10-12T08:21:03.877Z,99383.63
2023-10-12T08:23:07.052Z,99374.00
2023-10-12T08:25:10.025Z,99348.75
2023-10-12T08:27:14.038Z,99365.00
2023-10-12T08:29:25.135Z,99370.25
2023-10-12T08:31:31.925Z,99360.97
2023-10-12T08:33:53.919Z,99428.25
2023-10-12T08:36:17.374Z,99385.06
2023-10-12T08:38:34.817Z,99378.34
2023-10-12T08:40:41.667Z,99411.78
2023-10-12T08:42:59.684Z,99392.72
2023-10-12T08:45:11.502Z,99436.03
2023-10-12T08:47:28.421Z,99422.44
2023-10-12T08:49:54.351Z,99445.78
2023-10-12T08:52:17.840Z,99430.84
2023-10-12T08:54:23.159Z,99451.59
2023-10-12T08:56:28.212Z,99414.31
2023-10-12T08:58:50.064Z,99439.50
2023-10-12T09:01:00.696Z,99402.66
2023-10-12T09:03:07.927Z,99412.16
2023-10-12T09:05:14.024Z,99423.72
2023-10-12T09:07:37.955Z,99451.31
2023-10-12T09:10:12.955Z,99409.56
2023-10-12T09:12:22.776Z,99446.59
2023-10-12T09:14:28.062Z,99446.44
2023-10-12T09:16:31.213Z,99442.22
2023-10-12T09:18:44.524Z,99442.41
2023-10-12T09:21:05.795Z,99453.72
2023-10-12T09:23:18.023Z,99424.59
2023-10-12T09:25:46.069Z,99449.50
2023-10-12T09:27:51.031Z,99451.09
2023-10-12T09:29:59.831Z,99502.63
2023-10-12T09:32:14.499Z,99480.13
2023-10-12T09:34:32.502Z,99485.78
2023-10-12T09:36:39.118Z,99458.25
2023-10-12T09:38:44.911Z,99493.06
2023-10-12T09:40:54.382Z,99492.91
2023-10-12T09:43:08.876Z,99404.16
2023-10-12T09:45:29.531Z,99471.59
2023-10-12T09:47:47.041Z,99477.69
2023-10-12T09:49:56.219Z,99493.91
2023-10-12T09:52:05.498Z,99498.34
2023-10-12T09:54:17.600Z,99501.56
2023-10-12T09:56:26.056Z,99526.94
2023-10-12T09:58:36.392Z,99483.94
2023-10-12T10:01:00.476Z,99518.03
2023-10-12T10:03:05.286Z,99494.09
2023-10-12T10:05:28.854Z,99512.16
2023-10-12T10:07:37.978Z,99510.13
2023-10-12T10:09:43.160Z,99493.25
2023-10-12T10:11:48.125Z,99526.31
2023-10-12T10:13:55.078Z,99486.59
2023-10-12T10:15:58.174Z,99537.28
2023-10-12T10:18:03.384Z,99536.25
2023-10-12T10:20:26.692Z,99480.09
2023-10-12T10:22:33.792Z,99497.94
2023-10-12T10:24:53.472Z,99506.41
2023-10-12T10:26:59.830Z,99495.53
2023-10-12T10:29:19.046Z,99492.88
2023-10-12T10:31:35.803Z,99493.28
2023-10-12T10:33:39.395Z,99515.38
2023-10-12T10:36:27.252Z,99504.44
2023-10-12T10:38:34.011Z,99485.19
2023-10-12T10:40:46.618Z,99480.53
2023-10-12T10:43:07.632Z,99522.88
2023-10-12T10:45:14.492Z,99455.38
2023-10-12T10:47:17.947Z,99490.25
2023-10-12T10:51:30.648Z,99505.66
2023-10-12T10:53:38.953Z,99476.69
2023-10-12T10:55:42.345Z,99480.13
2023-10-12T10:57:45.080Z,99464.72
2023-10-12T10:59:48.629Z,99475.03
2023-10-12T11:01:52.091Z,99476.84
2023-10-12T11:03:59.119Z,99485.16
2023-10-12T11:06:02.583Z,99494.47
2023-10-12T11:08:21.610Z,99478.06
2023-10-12T11:10:33.223Z,99524.25
2023-10-12T11:12:39.755Z,99491.44
2023-10-12T11:15:00.284Z,99442.81
2023-10-12T11:17:07.299Z,99496.72
2023-10-12T11:19:10.807Z,99507.06
2023-10-12T11:23:19.601Z,99497.50
2023-10-12T11:25:22.592Z,99487.78
2023-10-12T11:27:36.146Z,99492.63
2023-10-12T11:29:55.664Z,99492.22
2023-10-12T11:32:18.089Z,99508.59
2023-10-12T11:34:25.800Z,99481.91
2023-10-12T11:36:28.587Z,99489.19
2023-10-12T11:38:31.364Z,99510.88
2023-10-12T11:40:34.175Z,99457.59
2023-10-12T11:42:54.509Z,99519.41
2023-10-12T11:44:57.712Z,99495.91
2023-10-12T11:47:02.720Z,99482.31
2023-10-12T11:49:10.248Z,99501.59
2023-10-12T11:51:13.605Z,99472.81
2023-10-12T11:53:17.161Z,99527.16
2023-10-12T11:55:21.717Z,99530.19
2023-10-12T11:57:25.029Z,99484.97
2023-10-12T11:59:28.616Z,99478.50
2023-10-12T12:01:31.587Z,99488.44
2023-10-12T12:03:41.642Z,99457.84
2023-10-12T12:05:45.594Z,99491.06
2023-10-12T12:07:53.206Z,99485.41
2023-10-12T12:10:02.937Z,99525.69
2023-10-12T12:12:14.212Z,99475.88
2023-10-12T12:14:17.138Z,99513.34
2023-10-12T12:16:24.330Z,99499.19
2023-10-12T12:18:29.636Z,99499.56
2023-10-12T12:20:40.400Z,99483.59
2023-10-12T12:22:46.217Z,99490.69
2023-10-12T12:24:49.119Z,99495.94
2023-10-12T12:26:56.534Z,99488.44
2023-10-12T12:29:05.910Z,99498.56
2023-10-12T12:31:12.788Z,99457.44
2023-10-12T12:33:18.111Z,99498.16
2023-10-12T12:35:23.186Z,99512.53
2023-10-12T12:37:27.291Z,99506.06
2023-10-12T12:39:34.959Z,99493.06
2023-10-12T12:41:38.308Z,99504.00
2023-10-12T12:43:43.259Z,99538.84
2023-10-12T12:45:45.867Z,99530.72
2023-10-12T12:47:48.777Z,99523.38
2023-10-12T12:49:52.119Z,99557.22
2023-10-12T12:51:55.201Z,99526.38
2023-10-12T12:53:58.262Z,99562.03
2023-10-12T12:56:04.234Z,99557.38
2023-10-12T12:58:09.385Z,99530.56
2023-10-12T13:00:21.306Z,99571.31
2023-10-12T13:02:24.107Z,99550.78
2023-10-12T13:04:29.429Z,99519.66
2023-10-12T13:06:36.482Z,99540.72
2023-10-12T13:08:40.161Z,99543.28
2023-10-12T13:10:43.036Z,99521.91
2023-10-12T13:12:47.940Z,99537.88
2023-10-12T13:14:51.824Z,99542.03
2023-10-12T13:16:56.477Z,99539.34
2023-10-12T13:19:01.558Z,99573.22
2023-10-12T13:21:08.266Z,99561.94
2023-10-12T13:23:14.761Z,99566.81
2023-10-12T13:25:21.275Z,99593.22
2023-10-12T13:27:33.796Z,99504.44
2023-10-12T13:29:39.693Z,99589.13
2023-10-12T13:31:42.674Z,99526.09
2023-10-12T13:33:46.031Z,99578.66
2023-10-12T13:35:50.868Z,99521.53
2023-10-12T13:37:54.876Z,99497.53
2023-10-12T13:39:59.763Z,99549.91
2023-10-12T13:42:02.916Z,99554.34
2023-10-12T13:44:07.459Z,99590.75
2023-10-12T13:46:11.173Z,99522.94
2023-10-12T13:48:14.141Z,99571.81
2023-10-12T13:50:16.928Z,99559.00
2023-10-12T13:52:20.033Z,99527.63
2023-10-12T13:54:24.915Z,99598.75
2023-10-12T13:56:31.689Z,99522.22
2023-10-12T13:58:38.688Z,99570.13
2023-10-12T14:00:43.794Z,99574.56
2023-10-12T14:02:49.621Z,99566.75
2023-10-12T14:04:52.473Z,99555.75
2023-10-12T14:07:03.099Z,99571.56
2023-10-12T14:09:07.067Z,99602.50
2023-10-12T14:11:19.838Z,99518.72
2023-10-12T14:13:22.763Z,99566.22
2023-10-12T14:15:28.596Z,99555.38
2023-10-12T14:17:31.532Z,99577.63
2023-10-12T14:19:37.650Z,99549.69
2023-10-12T14:21:40.757Z,99551.06
2023-10-12T14:23:50.720Z,99579.09
2023-10-12T14:25:55.930Z,99588.03
2023-10-12T14:28:01.957Z,99564.25
2023-10-12T14:30:19.714Z,99537.16
2023-10-12T14:32:25.568Z,99574.94
2023-10-12T14:34:28.358Z,99558.81
2023-10-12T14:36:31.472Z,99583.59
2023-10-12T14:38:36.020Z,99549.81
2023-10-12T14:40:42.343Z,99572.75
2023-10-12T14:42:45.542Z,99549.34
2023-10-12T14:44:53.477Z,99571.47
2023-10-12T14:46:56.312Z,99562.81
2023-10-12T14:49:00.119Z,99548.13
2023-10-12T14:51:14.698Z,99572.47
2023-10-12T14:53:22.579Z,99567.09
2023-10-12T14:55:26.351Z,99534.78
2023-10-12T14:57:30.575Z,99555.53
2023-10-12T14:59:35.740Z,99543.97
2023-10-12T15:01:40.633Z,99525.63
2023-10-12T15:03:47.430Z,99586.25
2023-10-12T15:05:55.769Z,99538.38
2023-10-12T15:07:59.055Z,99544.66
2023-10-12T15:10:04.095Z,99514.72
2023-10-12T15:12:07.674Z,99550.09
2023-10-12T15:14:10.567Z,99578.25
2023-10-12T15:16:14.504Z,99576.00
2023-10-12T15:18:19.982Z,99595.88
2023-10-12T15:20:28.296Z,99585.19
2023-10-12T15:22:32.244Z,99541.25
2023-10-12T15:24:42.014Z,99541.94
2023-10-12T15:26:45.107Z,99526.81
2023-10-12T15:28:51.078Z,99540.66
2023-10-12T15:30:54.249Z,99552.22
2023-10-12T15:32:57.550Z,99530.75
2023-10-12T15:35:00.371Z,99520.16
2023-10-12T15:37:03.602Z,99533.88
2023-10-12T15:39:16.667Z,99516.00
2023-10-12T15:41:21.113Z,99545.00
2023-10-12T15:43:25.567Z,99524.16
2023-10-12T15:45:30.530Z,99513.75
2023-10-12T15:47:34.248Z,99531.81
2023-10-12T15:49:37.461Z,99536.72
2023-10-12T15:51:41.392Z,99533.84
2023-10-12T15:53:45.295Z,99552.59
2023-10-12T15:55:49.849Z,99567.91
2023-10-12T15:57:54.834Z,99572.19
2023-10-12T15:59:58.007Z,99548.69
2023-10-12T16:02:02.677Z,99592.25
2023-10-12T16:04:10.201Z,99607.72
2023-10-12T16:06:15.108Z,99578.88
2023-10-12T16:08:19.554Z,99549.72
2023-10-12T16:10:22.876Z,99544.19
2023-10-12T16:12:28.871Z,99633.53
2023-10-12T16:14:33.716Z,99553.03
2023-10-12T16:16:37.870Z,99579.25
2023-10-12T16:18:42.640Z,99577.84
2023-10-12T16:20:46.307Z,99550.28
2023-10-12T16:22:49.967Z,99534.53
2023-10-12T16:24:54.038Z,99570.69
2023-10-12T16:26:56.832Z,99573.31
2023-10-12T16:29:03.018Z,99620.59
2023-10-12T16:31:09.896Z,99555.56
2023-10-12T16:33:13.520Z,99555.75
2023-10-12T16:35:22.292Z,99543.69
2023-10-12T16:37:25.732Z,99564.56
2023-10-12T16:39:30.312Z,99597.81
2023-10-12T16:41:35.141Z,99621.47
2023-10-12T16:43:39.378Z,99634.53
2023-10-12T16:45:42.709Z,99613.19
2023-10-12T16:47:46.773Z,99625.75
2023-10-12T16:49:49.822Z,99580.91
2023-10-12T16:51:52.943Z,99610.78
2023-10-12T16:53:55.504Z,99627.56
2023-10-12T16:56:00.484Z,99644.19
2023-10-12T16:58:03.972Z,99641.59
2023-10-12T17:00:10.108Z,99636.06
2023-10-12T17:02:12.911Z,99659.22
2023-10-12T17:04:42.245Z,99644.72
2023-10-12T17:06:45.336Z,99574.38
2023-10-12T17:08:49.301Z,99649.78
2023-10-12T17:10:52.222Z,99647.34
2023-10-12T17:12:55.148Z,99647.66
2023-10-12T17:14:59.845Z,99645.22
2023-10-12T17:17:05.771Z,99649.94
2023-10-12T17:19:09.449Z,99624.00
2023-10-12T17:21:14.553Z,99591.03
2023-10-12T17:23:17.604Z,99647.34
2023-10-12T17:25:20.491Z,99627.28
2023-10-12T17:27:23.182Z,99630.19
2023-10-12T17:29:28.335Z,99586.47
2023-10-12T17:31:31.281Z,99617.81
2023-10-12T17:33:35.370Z,99593.00
2023-10-12T17:35:39.758Z,99624.34
2023-10-12T17:37:44.165Z,99614.53
2023-10-12T17:39:47.163Z,99577.19
2023-10-12T17:41:51.194Z,99689.78
2023-10-12T17:43:54.978Z,99599.03
2023-10-12T17:45:58.783Z,99652.09
2023-10-12T17:48:02.470Z,99620.41
2023-10-12T17:50:14.723Z,99643.44
2023-10-12T17:52:20.800Z,99646.22
2023-10-12T17:54:24.638Z,99605.22
2023-10-12T17:56:27.844Z,99622.38
2023-10-12T17:58:31.024Z,99612.25
2023-10-12T18:00:35.096Z,99647.53
2023-10-12T18:02:43.616Z,99657.13
2023-10-12T18:04:48.184Z,99653.69
2023-10-12T18:06:51.937Z,99613.88
2023-10-12T18:08:55.502Z,99641.94
2023-10-12T18:11:07.661Z,99644.56
2023-10-12T18:13:13.943Z,99666.75
2023-10-12T18:15:16.739Z,99634.59
2023-10-12T18:17:19.422Z,99654.88
2023-10-12T18:19:22.808Z,99630.19
2023-10-12T18:21:26.022Z,99656.66
2023-10-12T18:23:32.782Z,99664.31
2023-10-12T18:25:39.570Z,99643.72
2023-10-12T18:27:44.872Z,99716.38
2023-10-12T18:29:48.304Z,99635.06
2023-10-12T18:31:51.558Z,99676.25
2023-10-12T18:33:54.918Z,99717.03
2023-10-12T18:35:58.044Z,99685.03
2023-10-12T18:38:00.953Z,99672.75
2023-10-12T18:40:06.360Z,99685.03
2023-10-12T18:42:11.042Z,99673.28
2023-10-12T18:44:15.448Z,99670.31
2023-10-12T18:46:22.019Z,99669.34
2023-10-12T18:48:30.789Z,99703.13
2023-10-12T18:50:33.507Z,99688.59
2023-10-12T18:52:39.171Z,99670.28
2023-10-12T18:54:44.080Z,99665.41
2023-10-12T18:56:46.796Z,99654.63
2023-10-12T18:58:51.846Z,99640.59
2023-10-12T19:01:00.368Z,99613.66
2023-10-12T19:03:04.677Z,99663.28
2023-10-12T19:05:08.222Z,99688.59
2023-10-12T19:07:12.174Z,99648.72
2023-10-12T19:09:15.093Z,99652.34
2023-10-12T19:11:21.642Z,99617.09
2023-10-12T19:13:25.036Z,99663.75
2023-10-12T19:15:28.296Z,99636.31
2023-10-12T19:17:31.281Z,99608.59
2023-10-12T19:19:34.249Z,99604.00
2023-10-12T19:21:39.325Z,99638.81
2023-10-12T19:23:42.505Z,99646.94
2023-10-12T19:25:45.544Z,99613.31
2023-10-12T19:27:48.763Z,99619.16
2023-10-12T19:29:51.949Z,99618.84
2023-10-12T19:31:56.821Z,99637.16
2023-10-12T19:33:59.577Z,99647.09
2023-10-12T19:36:06.110Z,99649.72
2023-10-12T19:38:09.758Z,99627.50
2023-10-12T19:40:17.786Z,99608.25
2023-10-12T19:42:20.804Z,99626.84
2023-10-12T19:44:24.791Z,99656.25
2023-10-12T19:46:29.490Z,99638.94
2023-10-12T19:48:32.908Z,99669.78
2023-10-12T19:50:38.199Z,99632.09
2023-10-12T19:52:41.273Z,99660.97
2023-10-12T19:54:44.637Z,99681.72
2023-10-12T19:56:47.932Z,99617.72
2023-10-12T19:58:53.993Z,99639.25
2023-10-12T20:00:58.190Z,99626.53
2023-10-12T20:03:16.481Z,99650.19
2023-10-12T20:05:20.331Z,99634.34
2023-10-12T20:07:23.501Z,99655.22
2023-10-12T20:09:30.822Z,99621.78
2023-10-12T20:11:34.819Z,99603.66
2023-10-12T20:13:39.337Z,99609.34
2023-10-12T20:15:43.681Z,99652.28
2023-10-12T20:17:48.919Z,99639.19
2023-10-12T20:19:55.186Z,99634.63
2023-10-12T20:21:58.122Z,99634.94
2023-10-12T20:24:01.550Z,99637.72
2023-10-12T20:26:05.847Z,99604.44
2023-10-12T20:28:08.742Z,99660.91
2023-10-12T20:30:12.899Z,99638.38
2023-10-12T20:32:15.568Z,99641.00
2023-10-12T20:34:21.424Z,99670.69
2023-10-12T20:36:24.622Z,99669.69
2023-10-12T20:38:29.371Z,99659.91
2023-10-12T20:40:40.908Z,99615.00
2023-10-12T20:42:44.686Z,99670.50
2023-10-12T20:44:47.320Z,99617.94
2023-10-12T20:46:50.899Z,99648.47
2023-10-12T20:48:56.793Z,99617.97
2023-10-12T20:51:06.594Z,99699.94
2023-10-12T20:53:11.289Z,99632.34
2023-10-12T20:55:14.912Z,99702.22
2023-10-12T20:57:18.068Z,99607.19
2023-10-12T20:59:28.027Z,99663.72
2023-10-12T21:01:32.477Z,99639.56
2023-10-12T21:03:39.045Z,99599.72
2023-10-12T21:05:41.883Z,99635.94
2023-10-12T21:07:45.554Z,99675.47
2023-10-12T21:10:02.574Z,99667.63
2023-10-12T21:12:15.999Z,99621.88
2023-10-12T21:14:22.961Z,99606.72
2023-10-12T21:16:28.781Z,99669.59
2023-10-12T21:18:39.137Z,99637.59
2023-10-12T21:20:54.063Z,99626.31
2023-10-12T21:22:57.369Z,99650.28
2023-10-12T21:25:00.212Z,99649.34
2023-10-12T21:27:08.207Z,99646.38
2023-10-12T21:29:13.440Z,99682.75
2023-10-12T21:31:18.835Z,99642.59
2023-10-12T21:33:29.603Z,99602.38
2023-10-12T21:35:33.125Z,99608.78
2023-10-12T21:37:37.362Z,99605.06
2023-10-12T21:39:43.495Z,99603.91
2023-10-12T21:41:46.199Z,99632.16
2023-10-12T21:43:48.739Z,99626.06
2023-10-12T21:45:53.411Z,99611.69
2023-10-12T21:47:56.353Z,99603.22
2023-10-12T21:49:59.406Z,99597.59
2023-10-12T21:52:02.610Z,99640.72
2023-10-12T21:54:07.357Z,99623.34
2023-10-12T21:56:10.886Z,99623.97
2023-10-12T21:58:13.456Z,99624.31
2023-10-12T22:00:33.343Z,99647.56
2023-10-12T22:02:36.207Z,99620.44
2023-10-12T22:04:39.839Z,99609.81
2023-10-12T22:06:42.792Z,99607.53
2023-10-12T22:08:46.045Z,99578.63
2023-10-12T22:10:53.172Z,99662.59
2023-10-12T22:12:58.604Z,99626.13
2023-10-12T22:15:02.800Z,99609.66
2023-10-12T22:17:09.225Z,99619.59
2023-10-12T22:19:12.077Z,99634.47
2023-10-12T22:21:16.330Z,99643.59
2023-10-12T22:23:19.859Z,99656.00
2023-10-12T22:25:22.665Z,99653.69
2023-10-12T22:27:33.192Z,99653.69
2023-10-12T22:29:37.280Z,99624.94
2023-10-12T22:31:40.480Z,99679.69
2023-10-12T22:33:43.537Z,99638.66
2023-10-12T22:35:59.989Z,99636.03
2023-10-12T22:38:04.914Z,99655.28
2023-10-12T22:40:18.771Z,99671.75
2023-10-12T22:42:21.654Z,99595.47
2023-10-12T22:44:24.557Z,99612.81
2023-10-12T22:46:27.102Z,99583.63
2023-10-12T22:48:30.248Z,99593.88
2023-10-12T22:50:33.423Z,99597.44
2023-10-12T22:52:36.065Z,99661.00
2023-10-12T22:54:39.761Z,99592.22
2023-10-12T22:56:43.825Z,99664.09
2023-10-12T22:58:46.340Z,99638.56
2023-10-12T23:00:51.854Z,99591.88
2023-10-12T23:02:56.021Z,99611.94
2023-10-12T23:04:59.399Z,99598.06
2023-10-12T23:07:02.821Z,99633.63
2023-10-12T23:09:08.681Z,99619.28
2023-10-12T23:11:24.535Z,99617.63
2023-10-12T23:13:31.168Z,99622.19
2023-10-12T23:15:34.318Z,99582.34
2023-10-12T23:18:03.596Z,99600.34
2023-10-12T23:20:17.772Z,99612.44
2023-10-12T23:22:23.868Z,99639.91
2023-10-12T23:24:26.571Z,99571.00
2023-10-12T23:26:32.265Z,99618.88
2023-10-12T23:28:35.404Z,99605.00
2023-10-12T23:30:40.513Z,99659.56
2023-10-12T23:32:43.526Z,99575.38
2023-10-12T23:34:46.326Z,99627.44
2023-10-12T23:37:00.104Z,99656.53
2023-10-12T23:39:03.008Z,99585.00
2023-10-12T23:41:16.317Z,99601.41
2023-10-12T23:43:19.751Z,99606.00
2023-10-12T23:45:38.096Z,99636.41
2023-10-12T23:47:41.309Z,99621.03
2023-10-12T23:49:47.748Z,99677.69
2023-10-12T23:51:50.531Z,99583.97
2023-10-12T23:53:56.535Z,99607.16
2023-10-12T23:55:59.379Z,99600.63
2023-10-12T23:58:13.991Z,99669.53
